createdAt,value
2019-02-10T00:00:37.054Z,8.18
2019-02-10T00:03:07.662Z,8.08
2019-02-10T00:05:43.060Z,8.00
2019-02-10T00:08:12.192Z,8.11
2019-02-10T00:10:41.301Z,8.02
2019-02-10T00:13:30.156Z,7.89
2019-02-10T00:16:00.063Z,7.88
2019-02-10T00:18:29.195Z,8.10
2019-02-10T00:21:02.371Z,8.44
2019-02-10T00:23:31.439Z,8.89
2019-02-10T00:26:04.369Z,8.68
2019-02-10T00:28:33.516Z,8.43
2019-02-10T00:31:03.973Z,-0.58
2019-02-10T00:33:36.496Z,8.75
2019-02-10T00:36:05.790Z,8.91
2019-02-10T00:38:36.695Z,8.75
2019-02-10T00:41:05.796Z,8.73
2019-02-10T00:43:34.925Z,8.32
2019-02-10T00:46:04.697Z,8.16
2019-02-10T00:48:50.047Z,8.00
2019-02-10T00:51:23.367Z,8.11
2019-02-10T00:53:52.975Z,8.15
2019-02-10T00:56:24.952Z,8.10
2019-02-10T00:59:13.274Z,8.21
2019-02-10T01:01:42.367Z,7.94
2019-02-10T01:04:11.765Z,7.95
2019-02-10T01:06:42.807Z,7.98
2019-02-10T01:09:13.031Z,7.92
2019-02-10T01:11:42.314Z,8.39
2019-02-10T01:14:14.319Z,7.85
2019-02-10T01:16:43.473Z,7.75
2019-02-10T01:19:15.301Z,7.80
2019-02-10T01:21:47.419Z,7.76
2019-02-10T01:24:19.511Z,7.83
2019-02-10T01:26:52.043Z,7.86
2019-02-10T01:29:21.152Z,7.60
2019-02-10T01:31:50.328Z,7.69
2019-02-10T01:34:19.451Z,7.70
2019-02-10T01:36:51.223Z,7.55
2019-02-10T01:39:21.793Z,7.56
2019-02-10T01:41:53.366Z,-0.85
2019-02-10T01:44:22.491Z,7.38
2019-02-10T01:46:51.939Z,7.55
2019-02-10T01:49:21.058Z,7.76
2019-02-10T01:51:51.695Z,7.51
2019-02-10T01:54:20.903Z,7.44
2019-02-10T01:56:52.737Z,7.42
2019-02-10T01:59:21.858Z,7.94
2019-02-10T02:01:50.955Z,7.49
2019-02-10T02:04:20.240Z,8.02
2019-02-10T02:06:57.540Z,7.74
2019-02-10T02:09:28.696Z,7.68
2019-02-10T02:12:01.916Z,7.73
2019-02-10T02:14:31.174Z,7.89
2019-02-10T02:17:00.636Z,7.60
2019-02-10T02:19:29.728Z,7.46
2019-02-10T02:22:01.132Z,7.94
2019-02-10T02:24:30.340Z,7.82
2019-02-10T02:27:00.808Z,7.79
2019-02-10T02:29:34.452Z,7.81
2019-02-10T02:32:03.658Z,7.70
2019-02-10T02:34:32.733Z,7.53
2019-02-10T02:37:08.160Z,7.61
2019-02-10T02:39:41.590Z,7.81
2019-02-10T02:42:14.643Z,7.58
2019-02-10T02:44:46.852Z,7.69
2019-02-10T02:47:17.460Z,7.83
2019-02-10T02:49:53.339Z,7.74
2019-02-10T02:52:20.177Z,7.52
2019-02-10T02:54:52.176Z,7.63
2019-02-10T02:57:21.281Z,7.66
2019-02-10T02:59:51.089Z,7.73
2019-02-10T03:02:24.686Z,7.99
2019-02-10T03:05:02.196Z,8.00
2019-02-10T03:07:31.610Z,8.04
2019-02-10T03:10:01.996Z,7.97
2019-02-10T03:12:32.930Z,7.78
2019-02-10T03:15:03.126Z,7.76
2019-02-10T03:17:33.734Z,7.72
2019-02-10T03:20:02.882Z,7.82
2019-02-10T03:22:33.766Z,7.57
2019-02-10T03:25:07.320Z,7.84
2019-02-10T03:27:36.428Z,7.63
2019-02-10T03:30:06.308Z,7.73
2019-02-10T03:32:35.666Z,7.53
2019-02-10T03:35:05.950Z,7.57
2019-02-10T03:37:38.355Z,7.61
2019-02-10T03:40:09.175Z,8.11
2019-02-10T03:42:42.816Z,7.89
2019-02-10T03:45:12.277Z,8.09
2019-02-10T03:47:44.237Z,7.78
2019-02-10T03:50:16.296Z,7.65
2019-02-10T03:52:49.427Z,7.68
2019-02-10T03:55:21.783Z,7.53
2019-02-10T03:57:52.407Z,7.68
2019-02-10T04:00:21.816Z,7.54
2019-02-10T04:02:52.407Z,7.57
2019-02-10T04:05:23.989Z,7.82
2019-02-10T04:07:53.264Z,7.72
2019-02-10T04:10:22.313Z,7.52
2019-02-10T04:12:52.541Z,7.45
2019-02-10T04:15:23.157Z,7.41
2019-02-10T04:17:52.307Z,7.58
2019-02-10T04:20:21.420Z,7.53
2019-02-10T04:22:52.815Z,7.68
2019-02-10T04:25:23.848Z,7.66
2019-02-10T04:27:55.745Z,7.60
2019-02-10T04:30:28.547Z,7.53
2019-02-10T04:32:57.720Z,7.72
2019-02-10T04:35:26.813Z,7.81
2019-02-10T04:37:55.939Z,7.75
2019-02-10T04:40:25.911Z,7.79
2019-02-10T04:42:55.406Z,7.73
2019-02-10T04:48:12.967Z,7.74
2019-02-10T04:50:42.094Z,7.78
2019-02-10T04:53:11.220Z,7.80
2019-02-10T04:55:40.322Z,7.97
2019-02-10T04:58:14.672Z,8.19
2019-02-10T05:00:47.100Z,8.42
2019-02-10T05:03:19.374Z,8.42
2019-02-10T05:05:48.510Z,8.41
2019-02-10T05:08:19.861Z,8.44
2019-02-10T05:10:48.962Z,8.42
2019-02-10T05:13:18.094Z,8.56
2019-02-10T05:15:48.724Z,8.43
2019-02-10T05:18:17.843Z,8.35
2019-02-10T05:20:46.952Z,8.86
2019-02-10T05:23:16.869Z,8.46
2019-02-10T05:25:45.972Z,8.21
2019-02-10T05:28:15.094Z,7.90
2019-02-10T05:30:44.159Z,8.10
2019-02-10T05:33:13.646Z,7.99
2019-02-10T05:35:43.470Z,8.17
2019-02-10T05:38:16.305Z,5.63
2019-02-10T05:40:46.529Z,8.04
2019-02-10T05:43:17.732Z,8.00
2019-02-10T05:45:49.373Z,7.98
2019-02-10T05:48:18.555Z,8.13
2019-02-10T05:50:51.394Z,8.04
2019-02-10T05:53:32.670Z,8.02
2019-02-10T05:56:01.780Z,8.02
2019-02-10T05:58:30.949Z,8.31
2019-02-10T06:01:36.484Z,8.24
2019-02-10T06:04:07.944Z,8.25
2019-02-10T06:06:38.764Z,8.18
2019-02-10T06:09:10.767Z,8.17
2019-02-10T06:11:45.283Z,8.16
2019-02-10T06:14:14.759Z,8.11
2019-02-10T06:16:43.964Z,8.12
2019-02-10T06:19:19.173Z,8.13
2019-02-10T06:21:50.180Z,8.14
2019-02-10T06:24:19.411Z,7.95
2019-02-10T06:26:48.738Z,8.08
2019-02-10T06:29:19.445Z,8.10
2019-02-10T06:31:50.524Z,8.09
2019-02-10T06:34:19.679Z,5.90
2019-02-10T06:36:48.751Z,8.04
2019-02-10T06:39:18.104Z,8.00
2019-02-10T06:41:48.310Z,8.04
2019-02-10T06:44:17.406Z,7.88
2019-02-10T06:46:49.027Z,8.23
2019-02-10T06:49:18.122Z,8.13
2019-02-10T06:51:49.076Z,8.03
2019-02-10T06:54:18.203Z,8.15
2019-02-10T06:56:47.318Z,6.90
2019-02-10T06:59:36.533Z,8.25
2019-02-10T07:02:26.195Z,8.50
2019-02-10T07:04:58.336Z,8.29
2019-02-10T07:07:27.529Z,8.38
2019-02-10T07:09:56.652Z,8.52
2019-02-10T07:12:50.699Z,8.60
2019-02-10T07:16:00.114Z,8.59
2019-02-10T07:19:06.196Z,8.60
2019-02-10T07:21:48.293Z,8.36
2019-02-10T07:24:37.835Z,7.87
2019-02-10T07:27:21.492Z,8.14
2019-02-10T07:30:34.016Z,8.07
2019-02-10T07:33:07.137Z,8.18
2019-02-10T07:36:08.434Z,8.17
2019-02-10T07:39:10.250Z,8.06
2019-02-10T07:42:29.647Z,8.22
2019-02-10T07:45:54.961Z,8.08
2019-02-10T07:49:00.287Z,8.04
2019-02-10T07:52:26.925Z,8.24
2019-02-10T07:55:19.138Z,8.18
2019-02-10T07:58:26.703Z,8.33
2019-02-10T08:01:28.810Z,8.48
2019-02-10T08:04:34.831Z,8.48
2019-02-10T08:07:47.283Z,8.62
2019-02-10T08:11:11.383Z,8.78
2019-02-10T08:13:57.420Z,8.96
2019-02-10T08:17:16.832Z,8.90
2019-02-10T08:20:10.993Z,9.09
2019-02-10T08:23:15.107Z,8.92
2019-02-10T08:26:12.521Z,8.95
2019-02-10T08:29:18.617Z,9.10
2019-02-10T08:32:36.579Z,9.16
2019-02-10T08:35:43.892Z,9.32
2019-02-10T08:38:28.094Z,9.14
2019-02-10T08:41:27.196Z,9.18
2019-02-10T08:44:10.413Z,9.24
2019-02-10T08:47:17.123Z,9.34
2019-02-10T08:50:24.420Z,9.40
2019-02-10T08:53:16.121Z,9.24
2019-02-10T08:55:48.254Z,9.29
2019-02-10T08:58:17.364Z,9.35
2019-02-10T09:00:46.498Z,9.49
2019-02-10T09:03:19.603Z,9.45
2019-02-10T09:05:49.338Z,9.78
2019-02-10T09:08:18.476Z,9.94
2019-02-10T09:10:47.752Z,10.03
2019-02-10T09:13:18.338Z,10.01
2019-02-10T09:15:53.582Z,10.27
2019-02-10T09:18:22.726Z,10.15
2019-02-10T09:20:51.834Z,10.09
2019-02-10T09:23:20.949Z,10.25
2019-02-10T09:25:50.185Z,10.02
2019-02-10T09:28:19.351Z,10.15
2019-02-10T09:30:48.489Z,10.24
2019-02-10T09:33:20.476Z,10.26
2019-02-10T09:35:53.196Z,10.33
2019-02-10T09:38:23.492Z,10.59
2019-02-10T09:40:54.043Z,10.30
2019-02-10T09:43:23.550Z,10.61
2019-02-10T09:45:52.828Z,10.75
2019-02-10T09:48:23.484Z,10.75
2019-02-10T09:50:52.579Z,10.68
2019-02-10T09:53:21.907Z,11.21
2019-02-10T09:55:52.396Z,11.38
2019-02-10T09:58:29.159Z,11.22
2019-02-10T10:00:58.995Z,11.37
2019-02-10T10:03:30.898Z,11.60
2019-02-10T10:06:00.006Z,11.51
2019-02-10T10:08:30.919Z,11.96
2019-02-10T10:11:00.236Z,11.98
2019-02-10T10:13:29.317Z,11.79
2019-02-10T10:15:59.543Z,11.96
2019-02-10T10:18:28.663Z,11.92
2019-02-10T10:21:00.734Z,12.02
2019-02-10T10:23:31.392Z,11.78
2019-02-10T10:26:01.990Z,11.93
2019-02-10T10:28:33.288Z,11.86
2019-02-10T10:31:02.536Z,12.06
2019-02-10T10:33:32.039Z,12.18
2019-02-10T10:36:01.129Z,12.18
2019-02-10T10:38:35.711Z,12.36
2019-02-10T10:41:05.060Z,12.48
2019-02-10T10:43:35.269Z,12.62
2019-02-10T10:46:04.363Z,12.65
2019-02-10T10:48:37.150Z,12.81
2019-02-10T10:51:06.251Z,13.43
2019-02-10T10:53:35.808Z,13.47
2019-02-10T10:56:06.147Z,13.38
2019-02-10T10:58:36.055Z,13.28
2019-02-10T11:01:11.658Z,13.45
2019-02-10T11:03:42.857Z,13.45
2019-02-10T11:06:14.436Z,13.29
2019-02-10T11:08:43.527Z,13.41
2019-02-10T11:11:14.362Z,13.74
2019-02-10T11:13:46.344Z,13.81
2019-02-10T11:16:23.601Z,13.75
2019-02-10T11:18:52.722Z,14.15
2019-02-10T11:21:21.880Z,13.89
2019-02-10T11:23:51.092Z,14.12
2019-02-10T11:26:21.798Z,13.94
2019-02-10T11:28:50.946Z,14.09
2019-02-10T11:31:20.187Z,13.97
2019-02-10T11:33:52.153Z,13.75
2019-02-10T11:36:21.337Z,13.53
2019-02-10T11:38:50.395Z,13.79
2019-02-10T11:41:19.686Z,13.82
2019-02-10T11:43:50.364Z,13.96
2019-02-10T11:46:21.212Z,13.78
2019-02-10T11:48:50.453Z,13.71
2019-02-10T11:51:19.599Z,13.35
2019-02-10T11:53:50.557Z,13.46
2019-02-10T11:56:19.707Z,13.45
2019-02-10T11:58:50.234Z,13.48
2019-02-10T12:01:21.116Z,13.33
2019-02-10T12:03:51.816Z,13.40
2019-02-10T12:06:23.769Z,13.20
2019-02-10T12:08:53.153Z,13.20
2019-02-10T12:11:22.256Z,13.21
2019-02-10T12:13:52.592Z,12.93
2019-02-10T12:16:25.957Z,12.98
2019-02-10T12:18:55.188Z,12.79
2019-02-10T12:21:26.220Z,12.67
2019-02-10T12:23:56.337Z,12.54
2019-02-10T12:26:27.546Z,12.39
2019-02-10T12:28:57.335Z,12.30
2019-02-10T12:31:26.478Z,12.34
2019-02-10T12:33:57.011Z,12.19
2019-02-10T12:36:26.045Z,12.14
2019-02-10T12:38:55.360Z,11.96
2019-02-10T12:41:28.302Z,11.87
2019-02-10T12:43:57.735Z,12.04
2019-02-10T12:46:26.899Z,11.65
2019-02-10T12:48:56.402Z,11.69
2019-02-10T12:51:25.640Z,11.31
2019-02-10T12:53:54.785Z,10.98
2019-02-10T12:56:33.123Z,10.80
2019-02-10T12:59:02.220Z,10.76
2019-02-10T13:01:31.338Z,10.54
2019-02-10T13:04:02.234Z,10.36
2019-02-10T13:06:31.415Z,10.28
2019-02-10T13:09:00.493Z,10.10
2019-02-10T13:11:29.587Z,9.98
2019-02-10T13:14:03.089Z,9.92
2019-02-10T13:16:48.910Z,9.78
2019-02-10T13:19:07.695Z,9.78
2019-02-10T13:21:36.787Z,9.58
2019-02-10T13:24:07.254Z,9.54
2019-02-10T13:26:39.353Z,9.47
2019-02-10T13:29:13.595Z,9.51
2019-02-10T13:31:42.733Z,9.46
2019-02-10T13:34:15.048Z,9.44
2019-02-10T13:36:44.556Z,9.37
2019-02-10T13:39:14.721Z,9.40
2019-02-10T13:41:45.125Z,9.54
2019-02-10T13:44:14.300Z,9.39
2019-02-10T13:46:44.774Z,9.35
2019-02-10T13:49:16.415Z,9.36
2019-02-10T13:51:45.516Z,9.25
2019-02-10T13:54:14.590Z,9.22
2019-02-10T13:56:43.781Z,9.38
2019-02-10T13:59:13.321Z,9.29
2019-02-10T14:01:45.367Z,8.74
2019-02-10T14:04:16.374Z,9.25
2019-02-10T14:06:49.180Z,9.22
2019-02-10T14:09:20.096Z,9.35
2019-02-10T14:11:49.482Z,9.24
2019-02-10T14:14:20.084Z,9.35
2019-02-10T14:16:49.325Z,9.33
2019-02-10T14:19:20.082Z,9.18
2019-02-10T14:21:50.130Z,9.31
2019-02-10T14:24:19.261Z,9.13
2019-02-10T14:26:49.317Z,9.14
2019-02-10T14:29:20.565Z,9.14
2019-02-10T14:31:55.470Z,9.11
2019-02-10T14:34:26.609Z,9.11
2019-02-10T14:36:55.776Z,9.07
2019-02-10T14:39:24.950Z,8.98
2019-02-10T14:41:57.728Z,9.07
2019-02-10T14:44:26.933Z,8.97
2019-02-10T14:46:57.821Z,8.97
2019-02-10T14:49:27.061Z,8.92
2019-02-10T14:51:57.357Z,8.82
2019-02-10T14:54:27.498Z,8.83
2019-02-10T14:56:59.020Z,8.82
2019-02-10T14:59:28.158Z,8.93
2019-02-10T15:01:57.274Z,8.84
2019-02-10T15:04:28.794Z,8.71
2019-02-10T15:07:00.311Z,8.88
2019-02-10T15:09:29.509Z,8.78
2019-02-10T15:11:59.946Z,8.80
2019-02-10T15:14:31.455Z,8.72
2019-02-10T15:17:00.646Z,8.92
2019-02-10T15:19:29.746Z,8.86
2019-02-10T15:21:59.170Z,8.99
2019-02-10T15:24:29.795Z,9.06
2019-02-10T15:26:59.624Z,9.01
2019-02-10T15:29:33.995Z,8.85
2019-02-10T15:32:03.186Z,9.03
2019-02-10T15:34:32.391Z,8.91
2019-02-10T15:37:01.577Z,9.03
2019-02-10T15:39:30.852Z,9.18
2019-02-10T15:42:09.225Z,9.05
2019-02-10T15:44:36.135Z,9.27
2019-02-10T15:47:05.349Z,8.81
2019-02-10T15:49:34.445Z,8.80
2019-02-10T15:52:03.549Z,8.27
2019-02-10T15:54:34.565Z,8.35
2019-02-10T15:57:05.650Z,8.31
2019-02-10T15:59:39.614Z,8.20
2019-02-10T16:02:08.758Z,7.81
2019-02-10T16:04:39.020Z,7.71
2019-02-10T16:07:09.707Z,7.46
2019-02-10T16:09:39.287Z,7.24
2019-02-10T16:12:08.990Z,7.45
2019-02-10T16:14:43.020Z,7.53
2019-02-10T16:17:13.922Z,7.46
2019-02-10T16:19:52.068Z,7.55
2019-02-10T16:22:21.895Z,7.76
2019-02-10T16:24:53.273Z,7.88
2019-02-10T16:27:24.146Z,7.95
2019-02-10T16:29:57.801Z,8.04
2019-02-10T16:32:28.798Z,8.01
2019-02-10T16:34:57.970Z,8.23
2019-02-10T16:37:29.514Z,7.96
2019-02-10T16:39:58.702Z,8.34
2019-02-10T16:42:30.151Z,6.98
2019-02-10T16:45:01.760Z,7.16
2019-02-10T16:47:30.877Z,6.82
2019-02-10T16:49:59.963Z,6.51
2019-02-10T16:52:29.172Z,6.67
2019-02-10T16:54:58.569Z,6.53
2019-02-10T16:57:33.610Z,6.48
2019-02-10T17:00:02.730Z,6.60
2019-02-10T17:02:31.942Z,6.66
2019-02-10T17:05:04.173Z,6.56
2019-02-10T17:07:36.560Z,6.74
2019-02-10T17:10:06.358Z,6.58
2019-02-10T17:12:35.661Z,7.01
2019-02-10T17:15:05.452Z,7.04
2019-02-10T17:17:36.033Z,6.64
2019-02-10T17:20:05.949Z,6.28
2019-02-10T17:22:35.787Z,6.61
2019-02-10T17:25:08.488Z,6.57
2019-02-10T17:27:42.873Z,6.03
2019-02-10T17:30:18.455Z,5.90
2019-02-10T17:32:50.859Z,6.10
2019-02-10T17:35:19.976Z,5.74
2019-02-10T17:37:49.283Z,5.79
2019-02-10T17:40:24.328Z,5.81
2019-02-10T17:42:55.396Z,5.76
2019-02-10T17:45:27.015Z,5.69
2019-02-10T17:48:08.094Z,5.97
2019-02-10T17:50:42.687Z,5.97
2019-02-10T17:53:11.925Z,5.81
2019-02-10T17:55:44.786Z,5.85
2019-02-10T17:58:15.124Z,5.78
2019-02-10T18:00:48.734Z,5.74
2019-02-10T18:03:18.455Z,5.79
2019-02-10T18:05:47.828Z,5.99
2019-02-10T18:08:17.282Z,5.80
2019-02-10T18:10:46.424Z,6.03
2019-02-10T18:13:18.663Z,5.88
2019-02-10T18:16:25.276Z,5.97
2019-02-10T18:19:17.072Z,5.91
2019-02-10T18:22:17.379Z,5.99
2019-02-10T18:25:11.535Z,6.25
2019-02-10T18:27:53.274Z,5.96
2019-02-10T18:30:47.385Z,6.04
2019-02-10T18:33:26.503Z,6.05
2019-02-10T18:36:16.462Z,6.17
2019-02-10T18:38:56.638Z,5.92
2019-02-10T18:41:39.345Z,5.88
2019-02-10T18:44:22.269Z,6.05
2019-02-10T18:47:00.711Z,6.03
2019-02-10T18:49:39.186Z,5.95
2019-02-10T18:52:28.329Z,6.05
2019-02-10T18:55:12.034Z,6.05
2019-02-10T18:58:05.978Z,5.93
2019-02-10T19:00:57.238Z,5.99
2019-02-10T19:03:45.319Z,5.95
2019-02-10T19:06:30.494Z,6.15
2019-02-10T19:09:21.340Z,6.02
2019-02-10T19:12:08.363Z,6.00
2019-02-10T19:17:45.029Z,5.97
2019-02-10T19:20:40.600Z,5.97
2019-02-10T19:23:43.693Z,6.05
2019-02-10T19:26:31.734Z,6.02
2019-02-10T19:29:20.197Z,5.99
2019-02-10T19:31:58.373Z,5.95
2019-02-10T19:34:54.240Z,5.86
2019-02-10T19:37:46.341Z,5.92
2019-02-10T19:40:35.154Z,5.75
2019-02-10T19:43:42.317Z,5.75
2019-02-10T19:46:29.321Z,5.80
2019-02-10T19:49:16.111Z,5.83
2019-02-10T19:52:15.930Z,5.76
2019-02-10T19:54:56.495Z,5.89
2019-02-10T19:57:46.568Z,5.85
2019-02-10T20:00:33.728Z,5.88
2019-02-10T20:03:22.013Z,5.89
2019-02-10T20:06:08.764Z,5.81
2019-02-10T20:08:57.179Z,5.80
2019-02-10T20:12:04.321Z,5.88
2019-02-10T20:14:42.249Z,5.80
2019-02-10T20:17:21.290Z,5.79
2019-02-10T20:20:03.096Z,5.82
2019-02-10T20:22:41.441Z,5.62
2019-02-10T20:25:40.230Z,5.74
2019-02-10T20:28:40.354Z,5.49
2019-02-10T20:31:43.778Z,5.24
2019-02-10T20:34:37.900Z,5.21
2019-02-10T20:37:26.332Z,5.27
2019-02-10T20:40:03.534Z,5.18
2019-02-10T20:43:10.010Z,4.99
2019-02-10T20:46:04.683Z,4.80
2019-02-10T20:48:44.141Z,4.94
2019-02-10T20:51:22.892Z,4.78
2019-02-10T20:54:10.954Z,4.79
2019-02-10T20:57:02.040Z,4.60
2019-02-10T20:59:57.390Z,4.63
2019-02-10T21:02:46.556Z,4.52
2019-02-10T21:05:40.773Z,4.38
2019-02-10T21:08:34.989Z,4.35
2019-02-10T21:11:28.806Z,4.31
2019-02-10T21:14:24.224Z,4.31
2019-02-10T21:17:19.899Z,4.19
2019-02-10T21:20:03.852Z,4.13
2019-02-10T21:22:40.075Z,4.18
2019-02-10T21:25:28.084Z,4.36
2019-02-10T21:28:13.284Z,4.21
2019-02-10T21:31:07.699Z,4.48
2019-02-10T21:33:55.627Z,4.37
2019-02-10T21:36:46.798Z,4.53
2019-02-10T21:39:50.642Z,4.72
2019-02-10T21:42:29.070Z,5.05
2019-02-10T21:45:25.676Z,5.07
2019-02-10T21:48:04.585Z,5.16
2019-02-10T21:50:33.689Z,5.44
2019-02-10T21:53:04.226Z,5.35
2019-02-10T21:55:36.213Z,5.42
2019-02-10T21:58:08.678Z,5.51
2019-02-10T22:00:39.856Z,5.41
2019-02-10T22:03:13.732Z,5.57
2019-02-10T22:05:43.834Z,5.62
2019-02-10T22:08:12.932Z,5.78
2019-02-10T22:10:42.063Z,6.02
2019-02-10T22:13:12.700Z,6.06
2019-02-10T22:15:48.076Z,5.87
2019-02-10T22:18:17.173Z,5.73
2019-02-10T22:20:48.030Z,5.64
2019-02-10T22:23:21.735Z,5.71
2019-02-10T22:25:54.058Z,6.00
2019-02-10T22:28:23.409Z,5.87
2019-02-10T22:30:52.614Z,5.85
2019-02-10T22:33:25.166Z,5.69
2019-02-10T22:35:54.296Z,5.80
2019-02-10T22:38:27.467Z,5.83
2019-02-10T22:40:56.645Z,5.79
2019-02-10T22:43:26.162Z,5.76
2019-02-10T22:45:58.149Z,5.78
2019-02-10T22:48:27.254Z,5.86
2019-02-10T22:50:59.096Z,6.02
2019-02-10T22:53:29.622Z,5.81
2019-02-10T22:55:58.764Z,5.81
2019-02-10T22:58:31.003Z,5.59
2019-02-10T23:01:08.874Z,5.53
2019-02-10T23:03:39.668Z,5.51
2019-02-10T23:08:57.267Z,5.35
2019-02-10T23:11:26.436Z,5.39
2019-02-10T23:13:55.546Z,5.62
2019-02-10T23:16:26.427Z,5.64
2019-02-10T23:19:04.268Z,5.72
2019-02-10T23:21:36.388Z,5.53
2019-02-10T23:24:11.445Z,5.43
2019-02-10T23:26:43.798Z,5.39
2019-02-10T23:29:12.888Z,5.40
2019-02-10T23:31:42.442Z,5.55
2019-02-10T23:34:14.474Z,5.80
2019-02-10T23:36:43.807Z,5.66
2019-02-10T23:39:17.493Z,5.49
2019-02-10T23:41:52.394Z,5.60
2019-02-10T23:44:21.534Z,5.58
2019-02-10T23:46:50.751Z,5.58
2019-02-10T23:49:22.403Z,5.54
2019-02-10T23:51:51.682Z,5.61
2019-02-10T23:54:22.103Z,5.65
2019-02-10T23:56:53.319Z,5.76
2019-02-10T23:59:22.540Z,5.66
